createdAt,value
2019-06-01T00:04:07.153Z,9.55
2019-06-01T00:09:10.776Z,10.55
2019-06-01T00:14:14.437Z,10.75
2019-06-01T00:19:18.059Z,11.12
2019-06-01T00:24:21.792Z,12.35
2019-06-01T00:29:27.055Z,11.97
2019-06-01T00:34:30.662Z,12.82
2019-06-01T00:39:34.287Z,13.43
2019-06-01T00:44:38.005Z,14.38
2019-06-01T00:49:42.686Z,12.85
2019-06-01T00:54:47.333Z,13.22
2019-06-01T00:59:53.165Z,12.47
2019-06-01T01:05:02.171Z,11.70
2019-06-01T01:10:07.015Z,13.10
2019-06-01T01:15:10.749Z,13.65
2019-06-01T01:20:22.963Z,12.85
2019-06-01T01:25:26.711Z,12.10
2019-06-01T01:30:30.529Z,11.90
2019-06-01T01:35:39.840Z,12.85
2019-06-01T01:40:43.489Z,12.50
2019-06-01T01:45:48.481Z,13.83
2019-06-01T01:50:52.432Z,12.53
2019-06-01T01:55:57.224Z,12.53
2019-06-01T02:01:17.993Z,12.30
2019-06-01T02:06:06.367Z,11.53
2019-06-01T02:11:10.115Z,13.38
2019-06-01T02:16:13.823Z,12.18
2019-06-01T02:21:17.562Z,12.37
2019-06-01T02:26:21.272Z,13.20
2019-06-01T02:31:40.005Z,11.75
2019-06-01T02:36:30.291Z,12.15
2019-06-01T02:41:33.988Z,13.48
2019-06-01T02:46:37.622Z,12.78
2019-06-01T02:51:41.284Z,13.32
2019-06-01T02:56:45.013Z,13.32
2019-06-01T03:01:57.482Z,14.65
2019-06-01T03:07:03.820Z,13.68
2019-06-01T03:12:11.216Z,13.10
2019-06-01T03:17:17.312Z,14.00
2019-06-01T03:22:23.435Z,13.75
2019-06-01T03:27:30.378Z,14.75
2019-06-01T03:32:37.100Z,14.47
2019-06-01T03:37:39.266Z,15.90
2019-06-01T03:42:42.886Z,14.90
2019-06-01T03:47:48.090Z,13.03
2019-06-01T03:52:51.703Z,13.48
2019-06-01T03:58:00.853Z,13.95
2019-06-01T04:03:05.337Z,13.90
2019-06-01T04:08:09.657Z,14.55
2019-06-01T04:13:13.587Z,15.20
2019-06-01T04:18:17.638Z,16.40
2019-06-01T04:23:21.280Z,15.90
2019-06-01T04:28:24.875Z,14.70
2019-06-01T04:33:29.662Z,15.43
2019-06-01T04:38:33.286Z,14.05
2019-06-01T04:43:37.539Z,13.90
2019-06-01T04:48:41.094Z,13.93
2019-06-01T04:53:44.706Z,14.00
2019-06-01T04:58:50.105Z,13.30
2019-06-01T05:03:53.838Z,12.00
2019-06-01T05:08:57.525Z,12.73
2019-06-01T05:14:01.220Z,12.63
2019-06-01T05:19:05.968Z,13.38
2019-06-01T05:24:10.642Z,12.98
2019-06-01T05:29:15.666Z,13.28
2019-06-01T05:34:19.691Z,14.05
2019-06-01T05:39:23.366Z,13.13
2019-06-01T05:44:31.117Z,13.48
2019-06-01T05:49:34.726Z,13.55
2019-06-01T05:54:38.532Z,13.90
2019-06-01T05:59:43.236Z,14.25
2019-06-01T06:04:48.438Z,13.75
2019-06-01T06:09:52.116Z,13.38
2019-06-01T06:14:55.835Z,14.13
2019-06-01T06:19:59.450Z,14.07
2019-06-01T06:25:03.126Z,13.78
2019-06-01T06:30:07.637Z,12.93
2019-06-01T06:35:13.816Z,14.30
2019-06-01T06:40:18.492Z,15.05
2019-06-01T06:45:22.864Z,14.28
2019-06-01T06:50:26.586Z,16.27
2019-06-01T06:55:30.239Z,16.30
2019-06-01T07:00:33.856Z,16.62
2019-06-01T07:05:37.545Z,17.15
2019-06-01T07:10:41.281Z,17.50
2019-06-01T07:15:44.936Z,14.87
2019-06-01T07:20:48.550Z,14.55
2019-06-01T07:25:52.307Z,13.53
2019-06-01T07:30:55.979Z,14.10
2019-06-01T07:35:59.533Z,13.00
2019-06-01T07:41:03.218Z,12.82
2019-06-01T07:46:07.790Z,12.23
2019-06-01T07:51:11.436Z,12.90
2019-06-01T07:56:15.086Z,11.50
2019-06-01T08:01:18.726Z,11.43
2019-06-01T08:06:23.821Z,10.50
2019-06-01T08:11:31.101Z,11.30
2019-06-01T08:16:39.669Z,9.90
2019-06-01T08:21:38.523Z,11.10
2019-06-01T08:26:48.385Z,11.80
2019-06-01T08:31:55.578Z,12.55
2019-06-01T08:36:57.349Z,11.75
2019-06-01T08:42:00.996Z,11.88
2019-06-01T08:47:04.888Z,11.22
2019-06-01T08:52:08.557Z,12.65
2019-06-01T08:57:19.116Z,13.72
2019-06-01T09:02:22.676Z,13.28
2019-06-01T09:07:26.895Z,13.13
2019-06-01T09:12:31.384Z,12.60
2019-06-01T09:17:35.565Z,14.33
2019-06-01T09:22:39.156Z,12.93
2019-06-01T09:27:42.879Z,14.23
2019-06-01T09:32:46.539Z,13.68
2019-06-01T09:37:50.302Z,13.08
2019-06-01T09:42:55.491Z,12.93
2019-06-01T09:47:59.103Z,13.50
2019-06-01T09:53:03.051Z,12.30
2019-06-01T09:58:06.719Z,12.80
2019-06-01T10:03:10.326Z,12.58
2019-06-01T10:08:14.181Z,11.48
2019-06-01T10:13:17.813Z,13.72
2019-06-01T10:18:21.481Z,11.97
2019-06-01T10:23:25.118Z,10.80
2019-06-01T10:28:28.877Z,10.45
2019-06-01T10:33:32.706Z,9.83
2019-06-01T10:38:39.382Z,10.93
2019-06-01T10:43:43.203Z,10.82
2019-06-01T10:48:49.319Z,11.75
2019-06-01T10:53:52.999Z,11.30
2019-06-01T10:59:00.500Z,9.50
2019-06-01T11:04:03.032Z,10.60
2019-06-01T11:09:09.846Z,12.63
2019-06-01T11:14:13.500Z,10.70
2019-06-01T11:19:19.876Z,8.58
2019-06-01T11:24:25.136Z,8.85
2019-06-01T11:29:28.750Z,7.95
2019-06-01T11:34:32.354Z,7.30
2019-06-01T11:39:36.338Z,6.75
2019-06-01T11:44:47.029Z,6.60
2019-06-01T11:49:54.189Z,7.55
2019-06-01T11:54:57.828Z,6.75
2019-06-01T12:00:01.441Z,7.03
2019-06-01T12:05:07.618Z,8.38
2019-06-01T12:10:11.762Z,6.33
2019-06-01T12:15:15.583Z,7.17
2019-06-01T12:20:19.684Z,5.33
2019-06-01T12:25:23.290Z,5.85
2019-06-01T12:30:26.929Z,6.90
2019-06-01T12:35:30.529Z,4.97
2019-06-01T12:40:34.356Z,5.83
2019-06-01T12:45:43.834Z,4.90
2019-06-01T12:50:50.207Z,4.53
2019-06-01T12:55:53.038Z,3.60
2019-06-01T13:00:56.973Z,3.55
2019-06-01T13:06:00.611Z,4.08
2019-06-01T13:11:04.372Z,4.78
2019-06-01T13:16:10.003Z,3.42
2019-06-01T13:21:15.364Z,3.67
2019-06-01T13:26:19.090Z,3.47
2019-06-01T13:31:52.774Z,2.92
2019-06-01T13:36:56.602Z,2.90
2019-06-01T13:42:00.290Z,2.92
2019-06-01T13:47:06.562Z,2.87
2019-06-01T13:52:10.380Z,2.58
2019-06-01T13:57:16.610Z,2.70
2019-06-01T14:02:22.257Z,2.90
2019-06-01T14:07:27.551Z,2.72
2019-06-01T14:12:32.873Z,2.42
2019-06-01T14:17:36.435Z,2.75
2019-06-01T14:22:40.137Z,2.55
2019-06-01T14:27:43.832Z,2.33
2019-06-01T14:32:48.792Z,2.40
2019-06-01T14:37:53.392Z,2.55
2019-06-01T14:42:57.783Z,2.20
2019-06-01T14:48:01.582Z,2.20
2019-06-01T14:53:05.226Z,2.80
2019-06-01T14:58:08.925Z,2.05
2019-06-01T15:03:20.687Z,2.37
2019-06-01T15:08:24.321Z,2.65
2019-06-01T15:13:27.935Z,2.00
2019-06-01T15:18:31.565Z,2.67
2019-06-01T15:23:36.752Z,2.40
2019-06-01T15:28:40.341Z,2.60
2019-06-01T15:33:44.053Z,2.70
2019-06-01T15:38:47.676Z,2.00
2019-06-01T15:43:51.229Z,1.90
2019-06-01T15:48:57.796Z,2.12
2019-06-01T15:54:03.239Z,2.15
2019-06-01T15:59:06.964Z,2.00
2019-06-01T16:04:10.600Z,1.92
2019-06-01T16:09:14.240Z,2.08
2019-06-01T16:14:17.930Z,2.55
2019-06-01T16:19:21.563Z,2.85
2019-06-01T16:24:25.089Z,2.25
2019-06-01T16:29:28.789Z,1.92
2019-06-01T16:34:32.444Z,1.87
2019-06-01T16:39:36.056Z,2.00
2019-06-01T16:44:39.650Z,2.05
2019-06-01T16:49:43.251Z,2.00
2019-06-01T16:54:46.872Z,2.40
2019-06-01T16:59:50.539Z,1.80
2019-06-01T17:04:54.131Z,1.70
2019-06-01T17:09:58.686Z,2.20
2019-06-01T17:15:09.207Z,3.50
2019-06-01T17:20:33.724Z,2.00
2019-06-01T17:25:43.255Z,6.42
2019-06-01T17:30:48.028Z,5.47
2019-06-01T17:35:53.301Z,2.72
2019-06-01T17:40:56.946Z,3.35
2019-06-01T17:46:10.117Z,3.67
2019-06-01T17:51:13.911Z,3.83
2019-06-01T17:56:17.627Z,3.60
2019-06-01T18:01:21.266Z,3.70
2019-06-01T18:06:25.186Z,4.50
2019-06-01T18:11:28.793Z,4.37
2019-06-01T18:16:32.390Z,4.50
2019-06-01T18:21:35.941Z,4.78
2019-06-01T18:26:39.541Z,4.92
2019-06-01T18:31:46.282Z,5.83
2019-06-01T18:36:49.935Z,5.15
2019-06-01T18:41:53.623Z,5.03
2019-06-01T18:46:57.426Z,4.25
2019-06-01T18:52:01.197Z,4.42
2019-06-01T18:57:12.026Z,3.42
2019-06-01T19:02:10.472Z,3.22
2019-06-01T19:07:15.428Z,3.83
2019-06-01T19:12:20.297Z,3.65
2019-06-01T19:17:23.910Z,3.67
2019-06-01T19:22:27.525Z,3.60
2019-06-01T19:27:31.619Z,4.30
2019-06-01T19:32:35.253Z,4.20
2019-06-01T19:37:42.977Z,4.03
2019-06-01T19:42:50.052Z,3.83
2019-06-01T19:47:53.768Z,3.92
2019-06-01T19:52:59.084Z,4.20
2019-06-01T19:58:05.566Z,4.42
2019-06-01T20:03:14.347Z,4.37
2019-06-01T20:08:20.262Z,4.35
2019-06-01T20:13:26.665Z,4.25
2019-06-01T20:18:30.318Z,4.12
2019-06-01T20:23:37.460Z,4.00
2019-06-01T20:28:47.088Z,4.05
2019-06-01T20:33:56.005Z,4.50
2019-06-01T20:38:57.626Z,4.30
2019-06-01T20:44:04.008Z,4.65
2019-06-01T20:49:14.557Z,5.17
2019-06-01T20:54:19.035Z,5.87
2019-06-01T20:59:24.610Z,7.10
2019-06-01T21:04:28.502Z,7.20
2019-06-01T21:09:32.035Z,7.60
2019-06-01T21:14:36.967Z,7.87
2019-06-01T21:19:40.839Z,8.88
2019-06-01T21:24:44.600Z,9.10
2019-06-01T21:29:48.211Z,9.43
2019-06-01T21:34:51.919Z,8.60
2019-06-01T21:39:55.507Z,8.53
2019-06-01T21:44:59.241Z,9.60
2019-06-01T21:50:08.275Z,9.50
2019-06-01T21:55:12.542Z,9.00
2019-06-01T22:00:29.587Z,9.48
2019-06-01T22:05:33.310Z,12.23
2019-06-01T22:10:36.917Z,12.47
2019-06-01T22:15:42.314Z,11.57
2019-06-01T22:20:47.119Z,10.05
2019-06-01T22:25:50.734Z,12.90
2019-06-01T22:30:54.422Z,16.40
2019-06-01T22:35:58.057Z,20.02
2019-06-01T22:41:01.743Z,28.60
2019-06-01T22:46:13.880Z,27.93
2019-06-01T22:51:17.500Z,33.83
2019-06-01T22:56:21.184Z,34.23
2019-06-01T23:01:24.950Z,24.32
2019-06-01T23:06:29.224Z,17.07
2019-06-01T23:11:33.115Z,14.38
2019-06-01T23:16:38.275Z,12.37
2019-06-01T23:21:41.847Z,12.45
2019-06-01T23:26:59.606Z,12.58
2019-06-01T23:32:17.499Z,12.80
2019-06-01T23:37:22.550Z,14.10
2019-06-01T23:42:26.761Z,14.15
2019-06-01T23:47:39.215Z,14.40
2019-06-01T23:52:42.960Z,14.93
2019-06-01T23:57:46.634Z,14.53
